Time;durP1;ratioP1;P1;durP2;ratioP2;P2;SDS_P1;SDS_P2;PMS_P1;PMS_P2;Temp;Humidity;BMP_temperature;BMP_pressure;BME280_temperature;BME280_humidity;BME280_pressure;Samples;Min_cycle;Max_cycle;Signal;HPM_P1;HPM_P2
2022/09/23 00:01:13;;;;;;;;;;;12.40;49.80;;;;;;5096706;28;20534;-91
2022/09/23 00:03:40;;;;;;;;;;;12.40;50.00;;;;;;5096291;28;19908;-91
2022/09/23 00:06:24;;;;;;;;;;;12.40;50.20;;;;;;5094679;28;19916;-85
2022/09/23 00:08:50;;;;;;;;;;;12.40;50.30;;;;;;5094505;28;19912;-92
2022/09/23 00:11:20;;;;;;;;;;;12.40;50.50;;;;;;5094676;28;19972;-87
2022/09/23 00:13:47;;;;;;;;;;;12.40;50.60;;;;;;5095762;28;19943;-86
2022/09/23 00:16:15;;;;;;;;;;;12.40;50.70;;;;;;5094334;28;19940;-89
2022/09/23 00:18:41;;;;;;;;;;;12.40;51.00;;;;;;5094761;28;19916;-88
2022/09/23 00:21:08;;;;;;;;;;;12.40;51.10;;;;;;5092882;28;19920;-88
2022/09/23 00:23:34;;;;;;;;;;;12.40;51.20;;;;;;5093863;28;19994;-86
2022/09/23 00:26:01;;;;;;;;;;;12.50;51.30;;;;;;5092714;28;19967;-86
2022/09/23 00:28:27;;;;;;;;;;;12.40;51.30;;;;;;5093027;28;19912;-90
2022/09/23 00:30:52;;;;;;;;;;;12.50;51.40;;;;;;5101052;28;19912;-86
2022/09/23 00:33:18;;;;;;;;;;;12.50;51.30;;;;;;5098585;28;19974;-84
2022/09/23 00:35:44;;;;;;;;;;;12.40;51.10;;;;;;5092972;28;19948;-92
2022/09/23 00:38:09;;;;;;;;;;;12.40;50.90;;;;;;5095277;28;19923;-87
2022/09/23 00:40:37;;;;;;;;;;;12.30;50.80;;;;;;5093581;28;20019;-91
2022/09/23 00:43:04;;;;;;;;;;;12.30;50.80;;;;;;5094916;28;19926;-87
2022/09/23 00:45:31;;;;;;;;;;;12.30;50.70;;;;;;5094836;28;19969;-86
2022/09/23 00:48:00;;;;;;;;;;;12.20;50.70;;;;;;5092137;28;20458;-87
2022/09/23 00:50:33;;;;;;;;;;;12.20;50.70;;;;;;5094079;28;20358;-87
2022/09/23 00:53:00;;;;;;;;;;;12.20;50.80;;;;;;5093566;28;19920;-89
2022/09/23 00:55:29;;;;;;;;;;;12.10;50.80;;;;;;5093414;28;19919;-88
2022/09/23 00:57:56;;;;;;;;;;;12.10;50.90;;;;;;5095247;28;19916;-92
2022/09/23 01:00:22;;;;;;;;;;;12.10;50.80;;;;;;5094254;28;19920;-88
2022/09/23 01:02:48;;;;;;;;;;;12.00;50.80;;;;;;5093282;28;20022;-86
2022/09/23 01:05:14;;;;;;;;;;;12.00;50.80;;;;;;5095453;28;20007;-89
2022/09/23 01:07:39;;;;;;;;;;;12.00;50.80;;;;;;5093126;28;19923;-84
2022/09/23 01:10:06;;;;;;;;;;;11.90;50.80;;;;;;5094298;28;19916;-87
2022/09/23 01:12:53;;;;;;;;;;;11.90;50.70;;;;;;5092394;28;19969;-88
2022/09/23 01:15:20;;;;;;;;;;;11.80;50.80;;;;;;5096729;28;19916;-88
2022/09/23 01:17:46;;;;;;;;;;;11.80;51.00;;;;;;5094248;28;20015;-92
2022/09/23 01:20:30;;;;;;;;;;;11.80;51.00;;;;;;5094349;28;19956;-88
2022/09/23 01:23:02;;;;;;;;;;;11.90;51.10;;;;;;5094169;28;19915;-89
2022/09/23 01:25:27;;;;;;;;;;;11.90;51.10;;;;;;5095724;28;19919;-92
2022/09/23 01:27:56;;;;;;;;;;;11.90;51.10;;;;;;5091378;28;19908;-87
2022/09/23 01:30:40;;;;;;;;;;;11.90;51.10;;;;;;5093389;28;20436;-88
2022/09/23 01:33:13;;;;;;;;;;;11.90;51.10;;;;;;5091459;28;19941;-87
2022/09/23 01:35:49;;;;;;;;;;;11.90;51.10;;;;;;5073938;28;19911;-88
2022/09/23 01:38:26;;;;;;;;;;;11.90;51.10;;;;;;5073226;28;19924;-93
2022/09/23 01:40:54;;;;;;;;;;;11.80;51.10;;;;;;5072602;28;20388;-86
2022/09/23 01:43:43;;;;;;;;;;;11.80;51.00;;;;;;5070715;28;19965;-89
2022/09/23 01:46:13;;;;;;;;;;;11.80;51.00;;;;;;5065210;28;19912;-87
2022/09/23 01:48:55;;;;;;;;;;;11.80;51.00;;;;;;5072771;28;19912;-87
2022/09/23 01:51:25;;;;;;;;;;;11.80;51.00;;;;;;5071537;28;19916;-87
2022/09/23 01:53:54;;;;;;;;;;;11.70;51.00;;;;;;5072966;28;19919;-87
2022/09/23 01:56:22;;;;;;;;;;;11.70;51.10;;;;;;5073069;28;19920;-88
2022/09/23 01:58:52;;;;;;;;;;;11.70;51.10;;;;;;5072711;28;19912;-86
2022/09/23 02:01:22;;;;;;;;;;;11.70;51.10;;;;;;5071191;28;19934;-87
2022/09/23 02:04:16;;;;;;;;;;;11.70;51.10;;;;;;5070641;28;19913;-91
2022/09/23 02:06:50;;;;;;;;;;;11.70;51.10;;;;;;5070784;28;19920;-88
2022/09/23 02:09:20;;;;;;;;;;;11.70;51.20;;;;;;5072785;28;19912;-85
2022/09/23 02:11:47;;;;;;;;;;;11.70;51.20;;;;;;5070135;28;20767;-90
2022/09/23 02:14:19;;;;;;;;;;;11.70;51.30;;;;;;5072940;28;20019;-89
2022/09/23 02:16:46;;;;;;;;;;;11.70;51.30;;;;;;5070464;28;19932;-87
2022/09/23 02:19:19;;;;;;;;;;;11.80;51.40;;;;;;5074125;28;19912;-85
2022/09/23 02:21:48;;;;;;;;;;;11.80;51.40;;;;;;5075113;28;19927;-88
2022/09/23 02:24:17;;;;;;;;;;;11.80;51.40;;;;;;5070554;28;20019;-86
2022/09/23 02:26:52;;;;;;;;;;;11.80;51.40;;;;;;5070350;28;19923;-92
2022/09/23 02:29:20;;;;;;;;;;;11.80;51.40;;;;;;5080347;28;19912;-89
2022/09/23 02:31:55;;;;;;;;;;;11.80;51.60;;;;;;5076745;28;19923;-88
2022/09/23 02:34:33;;;;;;;;;;;11.80;51.80;;;;;;5091649;28;20297;-88
2022/09/23 02:37:10;;;;;;;;;;;11.80;52.00;;;;;;5098478;28;19977;-89
2022/09/23 02:39:51;;;;;;;;;;;11.80;52.20;;;;;;5098229;28;20341;-87
2022/09/23 02:42:19;;;;;;;;;;;11.80;52.20;;;;;;5098889;28;19920;-86
2022/09/23 02:44:45;;;;;;;;;;;11.80;52.40;;;;;;5097385;28;19912;-87
2022/09/23 02:47:10;;;;;;;;;;;11.80;52.30;;;;;;5097108;28;19916;-86
2022/09/23 02:49:36;;;;;;;;;;;11.80;52.20;;;;;;5099377;28;19916;-89
2022/09/23 02:52:03;;;;;;;;;;;11.80;52.20;;;;;;5097452;28;19912;-87
2022/09/23 02:54:29;;;;;;;;;;;11.80;52.10;;;;;;5097880;28;20329;-86
2022/09/23 02:56:56;;;;;;;;;;;11.90;52.10;;;;;;5103280;28;19920;-86
2022/09/23 02:59:22;;;;;;;;;;;11.90;52.10;;;;;;5097993;28;19912;-89
2022/09/23 03:02:08;;;;;;;;;;;11.90;52.10;;;;;;5097476;28;19912;-86
2022/09/23 03:04:46;;;;;;;;;;;11.80;52.10;;;;;;5089059;28;20061;-91
2022/09/23 03:07:15;;;;;;;;;;;11.90;52.10;;;;;;5100254;28;19908;-90
2022/09/23 03:09:53;;;;;;;;;;;11.90;52.20;;;;;;5097803;28;19919;-92
2022/09/23 03:12:25;;;;;;;;;;;11.90;52.50;;;;;;5095872;28;20352;-89
2022/09/23 03:15:15;;;;;;;;;;;12.00;52.50;;;;;;5101292;28;20425;-88
2022/09/23 03:18:00;;;;;;;;;;;12.00;52.50;;;;;;5096088;28;19920;-89
2022/09/23 03:20:25;;;;;;;;;;;12.00;52.50;;;;;;5095595;28;19942;-86
2022/09/23 03:22:54;;;;;;;;;;;12.00;52.50;;;;;;5096040;28;19912;-89
2022/09/23 03:25:22;;;;;;;;;;;12.00;52.40;;;;;;5098028;28;19916;-87
2022/09/23 03:27:49;;;;;;;;;;;12.00;52.40;;;;;;5096267;28;20023;-92
2022/09/23 03:30:14;;;;;;;;;;;12.00;52.30;;;;;;5098058;28;19913;-92
2022/09/23 03:32:42;;;;;;;;;;;12.00;52.40;;;;;;5096614;28;19990;-91
2022/09/23 03:35:08;;;;;;;;;;;12.00;52.40;;;;;;5078007;28;19920;-93
2022/09/23 03:37:38;;;;;;;;;;;12.00;52.50;;;;;;5076950;28;19925;-89
2022/09/23 03:40:22;;;;;;;;;;;12.10;52.50;;;;;;5075667;28;20639;-89
2022/09/23 03:42:47;;;;;;;;;;;12.10;52.50;;;;;;5074078;28;20003;-86
2022/09/23 03:45:17;;;;;;;;;;;12.10;52.60;;;;;;5072520;28;19990;-92
2022/09/23 03:47:43;;;;;;;;;;;12.20;52.60;;;;;;5072985;28;19983;-91
2022/09/23 03:50:09;;;;;;;;;;;12.20;52.60;;;;;;5072637;28;19999;-88
2022/09/23 03:52:34;;;;;;;;;;;12.20;52.70;;;;;;5072757;28;20351;-87
2022/09/23 03:55:00;;;;;;;;;;;12.20;52.60;;;;;;5074146;28;19926;-88
2022/09/23 03:57:25;;;;;;;;;;;12.20;52.70;;;;;;5073711;28;19927;-88
2022/09/23 03:59:51;;;;;;;;;;;12.20;52.80;;;;;;5074080;28;19919;-87
2022/09/23 04:02:17;;;;;;;;;;;12.20;52.80;;;;;;5074321;28;20007;-92
2022/09/23 04:04:43;;;;;;;;;;;12.20;52.80;;;;;;5072181;28;19942;-89
2022/09/23 04:07:10;;;;;;;;;;;12.20;52.70;;;;;;5072040;28;20302;-87
2022/09/23 04:09:36;;;;;;;;;;;12.20;52.60;;;;;;5072274;28;19913;-89
2022/09/23 04:12:02;;;;;;;;;;;12.20;52.70;;;;;;5073711;28;19913;-89
2022/09/23 04:14:28;;;;;;;;;;;12.20;52.90;;;;;;5071788;28;19943;-89
2022/09/23 04:16:54;;;;;;;;;;;12.20;52.90;;;;;;5072626;28;19981;-92
2022/09/23 04:19:20;;;;;;;;;;;12.20;52.90;;;;;;5072403;28;19924;-93
2022/09/23 04:21:46;;;;;;;;;;;12.20;53.00;;;;;;5072976;28;19920;-89
2022/09/23 04:24:12;;;;;;;;;;;12.20;53.10;;;;;;5073993;28;19920;-88
2022/09/23 04:26:38;;;;;;;;;;;12.20;53.10;;;;;;5072692;28;19913;-87
2022/09/23 04:29:04;;;;;;;;;;;12.20;53.10;;;;;;5072587;28;19912;-85
2022/09/23 04:31:30;;;;;;;;;;;12.20;53.10;;;;;;5073436;28;20408;-88
2022/09/23 04:33:56;;;;;;;;;;;12.20;53.10;;;;;;5079007;28;20293;-88
2022/09/23 04:36:21;;;;;;;;;;;12.10;53.10;;;;;;5091684;28;19920;-89
2022/09/23 04:38:47;;;;;;;;;;;12.10;53.10;;;;;;5091387;28;20325;-93
2022/09/23 04:41:13;;;;;;;;;;;12.10;53.10;;;;;;5093046;28;20328;-88
2022/09/23 04:43:39;;;;;;;;;;;12.00;53.00;;;;;;5091121;28;19916;-87
2022/09/23 04:46:05;;;;;;;;;;;12.10;53.10;;;;;;5091486;28;19938;-88
2022/09/23 04:48:31;;;;;;;;;;;12.10;53.10;;;;;;5092947;28;19916;-91
2022/09/23 04:51:03;;;;;;;;;;;12.00;53.10;;;;;;5092549;28;19938;-87
2022/09/23 04:53:30;;;;;;;;;;;12.00;53.20;;;;;;5091417;28;19969;-89
2022/09/23 04:56:03;;;;;;;;;;;12.10;53.20;;;;;;5092515;28;20278;-92
2022/09/23 04:58:28;;;;;;;;;;;12.10;53.30;;;;;;5091473;28;19928;-87
2022/09/23 05:00:54;;;;;;;;;;;12.10;53.30;;;;;;5093093;28;19912;-90
2022/09/23 05:03:19;;;;;;;;;;;12.00;53.30;;;;;;5092259;28;20188;-87
2022/09/23 05:05:45;;;;;;;;;;;12.00;53.60;;;;;;5094340;28;19912;-91
2022/09/23 05:08:10;;;;;;;;;;;12.10;53.80;;;;;;5091333;28;20371;-91
2022/09/23 05:10:36;;;;;;;;;;;12.10;53.90;;;;;;5091264;28;19922;-89
2022/09/23 05:13:01;;;;;;;;;;;12.10;53.80;;;;;;5090819;28;19912;-87
2022/09/23 05:15:26;;;;;;;;;;;12.10;53.70;;;;;;5092183;28;19918;-90
2022/09/23 05:17:55;;;;;;;;;;;12.00;53.70;;;;;;5091348;28;19926;-92
2022/09/23 05:20:21;;;;;;;;;;;12.00;53.70;;;;;;5092682;28;19974;-88
2022/09/23 05:22:46;;;;;;;;;;;12.00;53.80;;;;;;5092844;28;20329;-92
2022/09/23 05:25:12;;;;;;;;;;;12.00;53.90;;;;;;5091095;28;20042;-89
2022/09/23 05:27:37;;;;;;;;;;;12.10;54.10;;;;;;5092366;28;19912;-91
2022/09/23 05:30:03;;;;;;;;;;;12.10;54.30;;;;;;5091797;28;19920;-93
2022/09/23 05:32:30;;;;;;;;;;;12.20;54.40;;;;;;5081364;28;20348;-92
2022/09/23 05:34:56;;;;;;;;;;;12.30;54.70;;;;;;5082101;28;20024;-88
2022/09/23 05:37:22;;;;;;;;;;;12.30;55.00;;;;;;5091667;28;20006;-87
2022/09/23 05:39:47;;;;;;;;;;;12.50;54.80;;;;;;5091797;28;19912;-86
2022/09/23 05:42:14;;;;;;;;;;;12.50;54.70;;;;;;5082658;28;19912;-90
2022/09/23 05:44:39;;;;;;;;;;;12.50;54.60;;;;;;5091506;28;19935;-86
2022/09/23 05:47:05;;;;;;;;;;;12.50;54.60;;;;;;5080227;28;19916;-90
2022/09/23 05:49:30;;;;;;;;;;;12.50;54.70;;;;;;5081683;28;19924;-90
2022/09/23 05:51:56;;;;;;;;;;;12.50;54.80;;;;;;5089247;28;19923;-86
2022/09/23 05:54:21;;;;;;;;;;;12.50;54.80;;;;;;5088753;28;20007;-90
2022/09/23 05:56:47;;;;;;;;;;;12.50;54.90;;;;;;5087018;28;19923;-86
2022/09/23 05:59:12;;;;;;;;;;;12.50;54.80;;;;;;5086940;28;20058;-88
2022/09/23 06:01:39;;;;;;;;;;;12.50;54.90;;;;;;5089039;28;19923;-91
2022/09/23 06:04:06;;;;;;;;;;;12.60;55.00;;;;;;5087456;28;19968;-88
2022/09/23 06:06:33;;;;;;;;;;;12.60;55.10;;;;;;5067667;28;19977;-88
2022/09/23 06:08:59;;;;;;;;;;;12.60;55.30;;;;;;5068189;28;19979;-87
2022/09/23 06:11:25;;;;;;;;;;;12.70;55.40;;;;;;5068226;28;20533;-86
2022/09/23 06:13:54;;;;;;;;;;;12.70;55.50;;;;;;5068102;28;19966;-87
2022/09/23 06:16:19;;;;;;;;;;;12.80;55.50;;;;;;5068860;28;19985;-88
2022/09/23 06:18:45;;;;;;;;;;;12.80;55.70;;;;;;5070282;28;20011;-85
2022/09/23 06:21:12;;;;;;;;;;;12.90;55.90;;;;;;5066333;28;19920;-87
2022/09/23 06:23:37;;;;;;;;;;;13.10;55.90;;;;;;5066822;28;19917;-88
2022/09/23 06:26:04;;;;;;;;;;;13.20;56.10;;;;;;5067817;28;19924;-88
2022/09/23 06:28:33;;;;;;;;;;;13.30;56.40;;;;;;5068420;28;19912;-91
2022/09/23 06:31:00;;;;;;;;;;;13.50;56.80;;;;;;5067090;28;20544;-88
2022/09/23 06:33:26;;;;;;;;;;;13.80;57.50;;;;;;5084784;28;19913;-87
2022/09/23 06:36:02;;;;;;;;;;;14.20;58.40;;;;;;5088232;28;19912;-85
2022/09/23 06:38:27;;;;;;;;;;;14.60;59.30;;;;;;5088146;28;20378;-86
2022/09/23 06:40:54;;;;;;;;;;;15.20;60.00;;;;;;5086556;28;20020;-86
2022/09/23 06:43:20;;;;;;;;;;;15.80;60.60;;;;;;5066530;28;19927;-88
2022/09/23 06:45:46;;;;;;;;;;;16.40;60.90;;;;;;5068699;28;19995;-92
2022/09/23 06:48:11;;;;;;;;;;;17.10;60.50;;;;;;5066983;28;20062;-89
2022/09/23 06:50:37;;;;;;;;;;;17.60;59.90;;;;;;5069545;28;20256;-89
2022/09/23 06:53:03;;;;;;;;;;;18.20;59.00;;;;;;5066731;28;19969;-89
2022/09/23 06:55:28;;;;;;;;;;;18.50;58.30;;;;;;5067651;28;19917;-89
2022/09/23 06:57:56;;;;;;;;;;;18.90;58.00;;;;;;5066583;28;20248;-91
2022/09/23 07:00:22;;;;;;;;;;;19.30;57.80;;;;;;5066915;28;19917;-90
2022/09/23 07:02:48;;;;;;;;;;;19.80;57.40;;;;;;5066913;28;20023;-88
2022/09/23 07:05:16;;;;;;;;;;;20.30;57.10;;;;;;5068453;28;20007;-87
2022/09/23 07:07:42;;;;;;;;;;;20.60;55.80;;;;;;5066257;28;19920;-90
2022/09/23 07:10:08;;;;;;;;;;;20.80;54.80;;;;;;5065364;28;19925;-86
2022/09/23 07:12:33;;;;;;;;;;;21.10;54.10;;;;;;5066418;28;19924;-88
2022/09/23 07:14:59;;;;;;;;;;;21.30;53.80;;;;;;5068675;28;19920;-90
2022/09/23 07:17:25;;;;;;;;;;;21.50;53.00;;;;;;5069823;28;19927;-90
2022/09/23 07:19:51;;;;;;;;;;;21.80;52.40;;;;;;5071394;28;19925;-90
2022/09/23 07:22:17;;;;;;;;;;;21.90;50.90;;;;;;5069691;28;20268;-90
2022/09/23 07:24:45;;;;;;;;;;;21.90;49.20;;;;;;5069879;28;19916;-87
2022/09/23 07:27:13;;;;;;;;;;;22.00;48.80;;;;;;5071840;28;19920;-89
2022/09/23 07:29:38;;;;;;;;;;;22.00;47.80;;;;;;5074754;28;20370;-85
2022/09/23 07:32:04;;;;;;;;;;;22.20;48.20;;;;;;5090325;28;19923;-89
2022/09/23 07:34:30;;;;;;;;;;;22.40;47.90;;;;;;5089861;28;20481;-85
2022/09/23 07:36:55;;;;;;;;;;;22.70;47.60;;;;;;5091135;28;19924;-90
2022/09/23 07:39:20;;;;;;;;;;;23.10;46.70;;;;;;5090588;28;19916;-88
2022/09/23 07:41:46;;;;;;;;;;;23.40;45.80;;;;;;5082870;28;19923;-89
2022/09/23 07:44:12;;;;;;;;;;;23.90;44.50;;;;;;5071699;28;19920;-86
2022/09/23 07:46:38;;;;;;;;;;;24.30;42.30;;;;;;5069814;28;20019;-92
2022/09/23 07:49:04;;;;;;;;;;;24.70;42.20;;;;;;5069251;28;20363;-88
2022/09/23 07:51:31;;;;;;;;;;;25.20;41.20;;;;;;5070455;28;19923;-86
2022/09/23 07:53:57;;;;;;;;;;;25.70;40.00;;;;;;5070804;28;19917;-87
2022/09/23 07:56:26;;;;;;;;;;;26.00;39.30;;;;;;5070477;28;20038;-85
2022/09/23 07:59:02;;;;;;;;;;;26.30;38.20;;;;;;5069008;28;19924;-91
2022/09/23 08:01:30;;;;;;;;;;;26.50;36.90;;;;;;5069164;28;19924;-89
2022/09/23 08:03:59;;;;;;;;;;;26.60;35.40;;;;;;5069154;28;19916;-91
2022/09/23 08:06:25;;;;;;;;;;;26.70;35.50;;;;;;5070959;28;20058;-88
2022/09/23 08:08:50;;;;;;;;;;;27.10;35.70;;;;;;5091920;28;20390;-89
2022/09/23 08:11:16;;;;;;;;;;;27.30;35.10;;;;;;5090044;28;19916;-88
2022/09/23 08:13:41;;;;;;;;;;;27.50;34.40;;;;;;5090742;28;19919;-90
2022/09/23 08:16:07;;;;;;;;;;;27.80;33.80;;;;;;5089045;28;20057;-89
2022/09/23 08:18:33;;;;;;;;;;;28.00;33.50;;;;;;5090891;28;20644;-89
2022/09/23 08:20:58;;;;;;;;;;;28.30;32.90;;;;;;5090132;28;20282;-88
2022/09/23 08:23:24;;;;;;;;;;;28.50;32.50;;;;;;5090522;28;20014;-90
2022/09/23 08:25:58;;;;;;;;;;;28.80;32.30;;;;;;5090138;28;19977;-85
2022/09/23 08:28:24;;;;;;;;;;;29.10;31.70;;;;;;5088451;28;20016;-90
2022/09/23 08:30:50;;;;;;;;;;;29.50;31.40;;;;;;5090622;28;19964;-86
2022/09/23 08:33:15;;;;;;;;;;;29.80;31.30;;;;;;5090752;28;19963;-89
2022/09/23 08:35:41;;;;;;;;;;;30.20;30.60;;;;;;5090135;28;19916;-90
2022/09/23 08:38:06;;;;;;;;;;;30.30;30.00;;;;;;5088542;28;19931;-90
2022/09/23 08:40:36;;;;;;;;;;;30.60;30.20;;;;;;5080398;28;20255;-85
2022/09/23 08:43:05;;;;;;;;;;;31.00;29.50;;;;;;5088260;28;19922;-91
2022/09/23 08:45:33;;;;;;;;;;;31.30;28.00;;;;;;5089829;28;19924;-88
2022/09/23 08:48:00;;;;;;;;;;;31.40;27.70;;;;;;5089336;28;19927;-90
2022/09/23 08:50:28;;;;;;;;;;;31.70;27.60;;;;;;5088774;28;19923;-87
2022/09/23 08:52:58;;;;;;;;;;;31.80;27.00;;;;;;5094705;28;19916;-91
2022/09/23 08:55:34;;;;;;;;;;;31.80;26.90;;;;;;5089967;28;20367;-87
2022/09/23 08:58:20;;;;;;;;;;;31.90;27.10;;;;;;5089861;28;19931;-88
2022/09/23 09:01:06;;;;;;;;;;;32.00;26.60;;;;;;5088736;28;19916;-90
2022/09/23 09:03:52;;;;;;;;;;;32.00;26.40;;;;;;5089416;28;19915;-87
2022/09/23 09:06:30;;;;;;;;;;;32.10;26.40;;;;;;5088931;28;19916;-89
2022/09/23 09:09:00;;;;;;;;;;;32.20;26.20;;;;;;5089385;28;19922;-86
2022/09/23 09:11:30;;;;;;;;;;;32.40;26.40;;;;;;5090109;28;20016;-89
2022/09/23 09:14:02;;;;;;;;;;;32.70;26.50;;;;;;5087662;28;19916;-89
2022/09/23 09:16:41;;;;;;;;;;;32.80;25.70;;;;;;5090443;28;19930;-88
2022/09/23 09:19:12;;;;;;;;;;;32.90;25.90;;;;;;5088491;28;19920;-89
2022/09/23 09:21:39;;;;;;;;;;;33.10;25.70;;;;;;5088458;28;19919;-89
2022/09/23 09:24:11;;;;;;;;;;;33.30;25.20;;;;;;5090213;28;19920;-90
2022/09/23 09:26:38;;;;;;;;;;;33.30;24.80;;;;;;5089791;28;19916;-86
2022/09/23 09:29:07;;;;;;;;;;;33.20;24.90;;;;;;5089749;28;19920;-89
2022/09/23 09:31:38;;;;;;;;;;;33.30;24.70;;;;;;5089836;28;20000;-86
2022/09/23 09:34:05;;;;;;;;;;;33.30;24.70;;;;;;5089960;28;20018;-91
2022/09/23 09:36:46;;;;;;;;;;;33.40;24.60;;;;;;5088950;28;19924;-91
2022/09/23 09:39:12;;;;;;;;;;;33.50;24.70;;;;;;5089213;28;19926;-86
2022/09/23 09:41:40;;;;;;;;;;;33.80;24.10;;;;;;5070016;28;19912;-92
2022/09/23 09:44:14;;;;;;;;;;;33.80;23.50;;;;;;5069900;28;19921;-93
2022/09/23 09:46:48;;;;;;;;;;;33.90;23.30;;;;;;5068274;28;19924;-92
2022/09/23 09:49:22;;;;;;;;;;;34.00;23.60;;;;;;5069767;28;19917;-85
2022/09/23 09:52:01;;;;;;;;;;;34.10;23.10;;;;;;5068991;28;19912;-92
2022/09/23 09:54:27;;;;;;;;;;;34.20;22.10;;;;;;5068076;28;19967;-89
2022/09/23 09:56:53;;;;;;;;;;;34.30;22.50;;;;;;5070764;28;19927;-88
2022/09/23 09:59:24;;;;;;;;;;;34.40;22.60;;;;;;5070887;28;19916;-87
2022/09/23 10:02:10;;;;;;;;;;;34.50;21.80;;;;;;5067525;28;19916;-86
2022/09/23 10:04:35;;;;;;;;;;;34.50;21.50;;;;;;5070864;28;19913;-93
2022/09/23 10:07:11;;;;;;;;;;;34.40;21.20;;;;;;5069677;28;20405;-86
2022/09/23 10:09:37;;;;;;;;;;;34.30;21.50;;;;;;5071998;28;19961;-93
2022/09/23 10:12:03;;;;;;;;;;;34.50;22.10;;;;;;5067874;28;19916;-93
2022/09/23 10:14:29;;;;;;;;;;;34.70;22.30;;;;;;5068988;28;19923;-86
2022/09/23 10:17:04;;;;;;;;;;;34.80;21.20;;;;;;5068950;28;20471;-93
2022/09/23 10:19:30;;;;;;;;;;;34.70;21.40;;;;;;5070972;28;19917;-85
2022/09/23 10:21:58;;;;;;;;;;;34.80;21.60;;;;;;5069892;28;20345;-89
2022/09/23 10:24:35;;;;;;;;;;;34.70;21.50;;;;;;5068921;28;19977;-89
2022/09/23 10:27:03;;;;;;;;;;;34.70;20.70;;;;;;5067122;28;20391;-86
2022/09/23 10:29:35;;;;;;;;;;;34.40;21.10;;;;;;5070961;28;20295;-92
2022/09/23 10:32:13;;;;;;;;;;;34.40;21.50;;;;;;5071076;28;20255;-88
2022/09/23 10:34:42;;;;;;;;;;;34.30;21.40;;;;;;5068988;28;19974;-86
2022/09/23 10:37:15;;;;;;;;;;;34.30;21.70;;;;;;5069325;28;19920;-87
2022/09/23 10:48:34;;;;;;;;;;;34.30;21.80;;;;;;5070492;28;19931;-86
2022/09/23 10:51:09;;;;;;;;;;;34.20;20.70;;;;;;5074096;28;19924;-87
2022/09/23 10:53:49;;;;;;;;;;;34.00;20.70;;;;;;5071979;28;19970;-90
2022/09/23 10:56:18;;;;;;;;;;;33.70;20.70;;;;;;5074523;28;19921;-88
2022/09/23 10:59:02;;;;;;;;;;;33.50;21.40;;;;;;5073702;28;19966;-88
2022/09/23 11:01:38;;;;;;;;;;;33.50;21.70;;;;;;5074797;28;19921;-92
2022/09/23 11:04:27;;;;;;;;;;;33.50;21.80;;;;;;5071992;28;20351;-90
2022/09/23 11:07:00;;;;;;;;;;;33.40;22.00;;;;;;5043674;28;19923;-89
2022/09/23 11:09:52;;;;;;;;;;;33.50;22.10;;;;;;5073234;28;20362;-89
2022/09/23 11:12:23;;;;;;;;;;;33.30;21.70;;;;;;5070878;28;19921;-92
2022/09/23 11:15:05;;;;;;;;;;;33.20;21.90;;;;;;5078902;28;19912;-93
2022/09/23 11:17:49;;;;;;;;;;;33.10;21.90;;;;;;5071614;28;20098;-87
2022/09/23 11:20:15;;;;;;;;;;;33.10;22.00;;;;;;5070682;28;19965;-87
2022/09/23 11:23:11;;;;;;;;;;;33.20;21.80;;;;;;5071784;28;19924;-92
2022/09/23 11:25:44;;;;;;;;;;;33.20;22.10;;;;;;5071286;28;19920;-89
2022/09/23 11:28:39;;;;;;;;;;;33.10;21.80;;;;;;5076286;28;19917;-90
2022/09/23 11:31:21;;;;;;;;;;;33.00;21.30;;;;;;5035026;28;20435;-85
2022/09/23 11:33:50;;;;;;;;;;;32.80;21.80;;;;;;5071704;28;19913;-90
2022/09/23 11:36:36;;;;;;;;;;;32.80;22.00;;;;;;5072722;28;20007;-92
2022/09/23 11:39:14;;;;;;;;;;;32.80;22.10;;;;;;5074604;28;20278;-88
2022/09/23 11:41:41;;;;;;;;;;;32.70;22.30;;;;;;5086471;28;20118;-86
2022/09/23 11:44:29;;;;;;;;;;;32.70;22.30;;;;;;5070125;28;20019;-89
2022/09/23 11:46:58;;;;;;;;;;;32.50;21.90;;;;;;5067414;28;19912;-89
2022/09/23 11:49:26;;;;;;;;;;;32.40;22.20;;;;;;5076341;28;19912;-86
2022/09/23 11:52:13;;;;;;;;;;;32.20;22.10;;;;;;5072752;28;19916;-93
2022/09/23 11:54:38;;;;;;;;;;;32.00;22.10;;;;;;5072753;28;19912;-86
2022/09/23 11:57:05;;;;;;;;;;;31.80;22.10;;;;;;5071282;28;19924;-92
2022/09/23 11:59:36;;;;;;;;;;;31.70;22.30;;;;;;5071066;28;20022;-89
2022/09/23 12:02:25;;;;;;;;;;;31.50;22.50;;;;;;5070599;28;19928;-89
2022/09/23 12:04:59;;;;;;;;;;;31.30;22.20;;;;;;5072128;28;19920;-87
2022/09/23 12:07:32;;;;;;;;;;;31.10;22.40;;;;;;5073465;28;19916;-87
2022/09/23 12:10:05;;;;;;;;;;;30.80;22.40;;;;;;5075318;28;19916;-89
2022/09/23 12:12:40;;;;;;;;;;;30.70;22.60;;;;;;5071615;28;19921;-87
2022/09/23 12:15:18;;;;;;;;;;;30.70;22.90;;;;;;5071167;28;20053;-89
2022/09/23 12:17:56;;;;;;;;;;;30.70;23.00;;;;;;5071630;28;19925;-92
2022/09/23 12:20:22;;;;;;;;;;;30.70;23.10;;;;;;5074506;28;20321;-93
2022/09/23 12:22:54;;;;;;;;;;;30.70;23.10;;;;;;5070990;28;19916;-93
2022/09/23 12:25:30;;;;;;;;;;;30.80;23.20;;;;;;5073399;28;21506;-90
2022/09/23 12:27:59;;;;;;;;;;;30.80;23.30;;;;;;5090665;28;19916;-93
2022/09/23 12:30:27;;;;;;;;;;;30.80;23.30;;;;;;5091943;28;20351;-89
2022/09/23 12:33:06;;;;;;;;;;;30.80;23.20;;;;;;5091679;28;19920;-89
2022/09/23 12:35:36;;;;;;;;;;;30.90;23.10;;;;;;5092122;28;19916;-87
2022/09/23 12:38:10;;;;;;;;;;;30.90;22.70;;;;;;5091728;28;20088;-92
2022/09/23 12:40:45;;;;;;;;;;;30.90;22.80;;;;;;5078926;28;19935;-92
2022/09/23 12:43:15;;;;;;;;;;;31.00;23.00;;;;;;5071475;28;19965;-87
2022/09/23 12:45:41;;;;;;;;;;;31.20;23.00;;;;;;5071391;28;19952;-88
2022/09/23 12:48:15;;;;;;;;;;;31.30;22.60;;;;;;5070635;28;19955;-86
2022/09/23 12:50:46;;;;;;;;;;;31.30;22.40;;;;;;5070901;28;19920;-89
2022/09/23 12:53:31;;;;;;;;;;;31.30;22.50;;;;;;5070010;28;20346;-87
2022/09/23 12:55:57;;;;;;;;;;;31.40;22.50;;;;;;5074403;28;19955;-88
2022/09/23 12:58:43;;;;;;;;;;;31.60;22.20;;;;;;5070228;28;20318;-85
2022/09/23 13:01:16;;;;;;;;;;;31.70;22.20;;;;;;5049534;28;19930;-89
2022/09/23 13:06:51;;;;;;;;;;;31.70;21.60;;;;;;5072342;28;19978;-88
2022/09/23 13:09:23;;;;;;;;;;;31.80;22.00;;;;;;5071936;28;19919;-86
2022/09/23 13:11:50;;;;;;;;;;;31.80;21.50;;;;;;5069548;28;19920;-93
2022/09/23 13:14:18;;;;;;;;;;;31.60;21.40;;;;;;5069694;28;19919;-88
2022/09/23 13:16:44;;;;;;;;;;;31.40;21.90;;;;;;5069932;28;20295;-87
2022/09/23 13:19:25;;;;;;;;;;;31.20;22.10;;;;;;5070579;28;19908;-91
2022/09/23 13:21:53;;;;;;;;;;;31.00;22.40;;;;;;5072102;28;19997;-90
2022/09/23 13:24:21;;;;;;;;;;;30.80;22.50;;;;;;5069525;28;19923;-90
2022/09/23 13:26:53;;;;;;;;;;;30.70;22.70;;;;;;5069916;28;20282;-90
2022/09/23 13:29:26;;;;;;;;;;;30.70;22.80;;;;;;5068774;28;20112;-89
2022/09/23 13:31:54;;;;;;;;;;;30.70;23.00;;;;;;5072495;28;19916;-87
2022/09/23 13:34:21;;;;;;;;;;;30.60;23.10;;;;;;5071896;28;20133;-88
2022/09/23 13:36:48;;;;;;;;;;;30.60;23.10;;;;;;5071240;28;19924;-92
2022/09/23 13:39:24;;;;;;;;;;;30.50;23.20;;;;;;5071446;28;19917;-91
2022/09/23 13:41:51;;;;;;;;;;;30.50;23.40;;;;;;5073845;28;20018;-86
2022/09/23 13:44:20;;;;;;;;;;;30.50;23.30;;;;;;5071907;28;19916;-89
2022/09/23 13:46:57;;;;;;;;;;;30.40;22.80;;;;;;5071428;28;20003;-86
2022/09/23 13:49:24;;;;;;;;;;;30.20;22.90;;;;;;5077770;28;20206;-89
2022/09/23 13:51:52;;;;;;;;;;;30.20;23.10;;;;;;5090505;28;20382;-86
2022/09/23 13:54:27;;;;;;;;;;;30.10;23.00;;;;;;5088219;28;19960;-89
2022/09/23 13:56:54;;;;;;;;;;;30.10;23.30;;;;;;5090676;28;19931;-93
2022/09/23 13:59:30;;;;;;;;;;;30.00;23.50;;;;;;5090187;28;19922;-86
2022/09/23 14:02:11;;;;;;;;;;;30.00;23.60;;;;;;5091079;28;19916;-91
2022/09/23 14:04:37;;;;;;;;;;;30.00;23.70;;;;;;5089625;28;20010;-86
2022/09/23 14:07:03;;;;;;;;;;;29.90;23.70;;;;;;5089971;28;20010;-87
2022/09/23 14:09:32;;;;;;;;;;;29.90;23.80;;;;;;5090334;28;19916;-93
2022/09/23 14:11:59;;;;;;;;;;;29.90;23.90;;;;;;5091432;28;19954;-91
2022/09/23 14:14:25;;;;;;;;;;;29.80;23.60;;;;;;5093263;28;19924;-86
2022/09/23 14:16:51;;;;;;;;;;;29.80;23.80;;;;;;5090297;28;19952;-88
2022/09/23 14:19:18;;;;;;;;;;;29.70;23.90;;;;;;5088768;28;19916;-93
2022/09/23 14:22:02;;;;;;;;;;;29.70;24.10;;;;;;5088763;28;20340;-86
2022/09/23 14:24:27;;;;;;;;;;;29.60;24.10;;;;;;5088787;28;20374;-89
2022/09/23 14:26:55;;;;;;;;;;;29.50;24.20;;;;;;5088868;28;19916;-90
2022/09/23 14:29:25;;;;;;;;;;;29.40;24.20;;;;;;5091256;28;19920;-88
2022/09/23 14:32:03;;;;;;;;;;;29.30;24.40;;;;;;5087014;28;19920;-89
2022/09/23 14:34:46;;;;;;;;;;;29.30;24.40;;;;;;5087327;28;20199;-87
2022/09/23 14:40:08;;;;;;;;;;;29.00;24.70;;;;;;5089050;28;20401;-90
2022/09/23 14:42:37;;;;;;;;;;;28.90;24.90;;;;;;5072902;28;20011;-89
2022/09/23 14:45:03;;;;;;;;;;;28.80;24.80;;;;;;5067390;28;19951;-86
2022/09/23 14:47:30;;;;;;;;;;;28.70;24.80;;;;;;5067247;28;19966;-87